Time;durP1;ratioP1;P1;durP2;ratioP2;P2;SDS_P1;SDS_P2;PMS_P1;PMS_P2;Temp;Humidity;BMP_temperature;BMP_pressure;BME280_temperature;BME280_humidity;BME280_pressure;Samples;Min_cycle;Max_cycle;Signal;HPM_P1;HPM_P2
2023/01/29 00:00:28;;;;;;;;;31.50;23.25;;;;;;;;5102174;27;61897;-73
2023/01/29 00:02:54;;;;;;;;;36.50;30.00;;;;;;;;5101405;27;61748;-73
2023/01/29 00:05:19;;;;;;;;;34.75;29.50;;;;;;;;5102744;27;61684;-73
2023/01/29 00:07:44;;;;;;;;;43.75;33.00;;;;;;;;5102654;27;61856;-73
2023/01/29 00:10:10;;;;;;;;;42.50;32.75;;;;;;;;5103266;27;61734;-73
2023/01/29 00:12:35;;;;;;;;;30.75;27.50;;;;;;;;5104234;27;62040;-73
2023/01/29 00:15:00;;;;;;;;;39.50;32.25;;;;;;;;5106009;27;62322;-73
2023/01/29 00:17:27;;;;;;;;;52.25;31.75;;;;;;;;5104937;27;61900;-73
2023/01/29 00:19:52;;;;;;;;;45.25;36.50;;;;;;;;5105775;27;61765;-73
2023/01/29 00:22:17;;;;;;;;;49.50;39.00;;;;;;;;5106000;27;61994;-73
2023/01/29 00:24:43;;;;;;;;;48.75;32.50;;;;;;;;5105680;27;61992;-74
2023/01/29 00:27:08;;;;;;;;;44.50;37.50;;;;;;;;5106286;27;61809;-73
2023/01/29 00:29:33;;;;;;;;;51.50;39.00;;;;;;;;5104964;27;62722;-73
2023/01/29 00:31:59;;;;;;;;;50.67;39.67;;;;;;;;5104512;27;61965;-73
2023/01/29 00:34:24;;;;;;;;;32.75;30.50;;;;;;;;5105906;27;61925;-73
2023/01/29 00:36:49;;;;;;;;;40.75;30.50;;;;;;;;5106104;27;61661;-73
2023/01/29 00:39:14;;;;;;;;;56.00;43.33;;;;;;;;5104213;27;62786;-73
2023/01/29 00:47:29;;;;;;;;;49.00;36.00;;;;;;;;5105502;27;61803;-73
2023/01/29 00:49:53;;;;;;;;;48.33;37.67;;;;;;;;5105090;27;61747;-73
2023/01/29 00:52:24;;;;;;;;;43.67;36.00;;;;;;;;5105699;27;61649;-73
2023/01/29 00:54:53;;;;;;;;;53.67;35.67;;;;;;;;5103477;27;61781;-72
2023/01/29 00:57:18;;;;;;;;;52.00;40.00;;;;;;;;5105855;27;62072;-72
2023/01/29 00:59:44;;;;;;;;;53.33;40.67;;;;;;;;5103229;27;64486;-73
2023/01/29 01:04:53;;;;;;;;;51.33;40.00;;;;;;;;5105328;27;61778;-73
2023/01/29 01:07:18;;;;;;;;;64.33;46.33;;;;;;;;5104234;27;62194;-73
2023/01/29 01:12:28;;;;;;;;;60.67;44.67;;;;;;;;5105289;27;61836;-73
2023/01/29 01:14:53;;;;;;;;;60.33;44.00;;;;;;;;5103676;27;61760;-73
2023/01/29 01:17:18;;;;;;;;;60.00;42.00;;;;;;;;5103873;27;61852;-73
2023/01/29 01:19:44;;;;;;;;;56.00;40.00;;;;;;;;5104375;27;61954;-73
2023/01/29 01:22:09;;;;;;;;;67.67;38.67;;;;;;;;5104900;27;62016;-74
2023/01/29 01:24:35;;;;;;;;;55.67;43.00;;;;;;;;5103180;27;61807;-73
2023/01/29 01:27:00;;;;;;;;;64.67;43.00;;;;;;;;5105069;27;61723;-73
2023/01/29 01:29:25;;;;;;;;;55.33;39.00;;;;;;;;5104301;27;61932;-73
2023/01/29 01:31:52;;;;;;;;;50.67;41.33;;;;;;;;5104980;27;61844;-73
2023/01/29 01:34:17;;;;;;;;;55.33;46.33;;;;;;;;5105036;27;61664;-73
2023/01/29 01:36:42;;;;;;;;;35.67;33.00;;;;;;;;5104969;27;61747;-73
2023/01/29 01:39:07;;;;;;;;;51.00;44.33;;;;;;;;5103066;27;61792;-73
2023/01/29 01:41:33;;;;;;;;;55.67;41.33;;;;;;;;5103247;27;61844;-73
2023/01/29 01:43:59;;;;;;;;;46.33;39.33;;;;;;;;5104663;27;62034;-73
2023/01/29 01:46:27;;;;;;;;;54.50;38.25;;;;;;;;5104832;27;61829;-73
2023/01/29 01:48:56;;;;;;;;;45.00;38.00;;;;;;;;5103844;27;61865;-73
2023/01/29 01:51:23;;;;;;;;;42.67;37.67;;;;;;;;5104626;27;61874;-72
2023/01/29 01:53:55;;;;;;;;;52.25;29.75;;;;;;;;5102831;27;61724;-73
2023/01/29 01:56:24;;;;;;;;;61.00;39.67;;;;;;;;5104627;27;62032;-72
2023/01/29 01:58:52;;;;;;;;;49.00;36.75;;;;;;;;5102117;27;62116;-73
2023/01/29 02:01:20;;;;;;;;;50.75;38.00;;;;;;;;5104306;27;61857;-73
2023/01/29 02:09:34;;;;;;;;;50.33;40.67;;;;;;;;5103342;27;61910;-73
2023/01/29 02:12:00;;;;;;;;;53.33;36.33;;;;;;;;5103927;27;61949;-73
2023/01/29 02:14:25;;;;;;;;;52.67;43.33;;;;;;;;5104035;27;61926;-73
2023/01/29 02:16:50;;;;;;;;;45.67;37.00;;;;;;;;5102932;27;61840;-73
2023/01/29 02:19:27;;;;;;;;;52.67;38.33;;;;;;;;5102303;27;62942;-73
2023/01/29 02:22:11;;;;;;;;;53.67;45.33;;;;;;;;5103705;27;61988;-73
2023/01/29 02:24:40;;;;;;;;;41.67;33.33;;;;;;;;5102646;27;61778;-73
2023/01/29 02:27:07;;;;;;;;;54.67;42.33;;;;;;;;5102970;27;61902;-73
2023/01/29 02:29:34;;;;;;;;;55.67;42.33;;;;;;;;5103054;27;62767;-73
2023/01/29 02:31:59;;;;;;;;;61.67;46.00;;;;;;;;5104073;27;61779;-73
2023/01/29 02:37:26;;;;;;;;;66.67;46.00;;;;;;;;5103765;27;61714;-72
2023/01/29 02:39:56;;;;;;;;;66.00;49.33;;;;;;;;5102578;27;62545;-73
2023/01/29 02:42:27;;;;;;;;;43.00;40.00;;;;;;;;5103765;27;61699;-74
2023/01/29 02:45:03;;;;;;;;;62.67;37.67;;;;;;;;5103157;27;62064;-73
2023/01/29 02:47:47;;;;;;;;;56.33;47.00;;;;;;;;5102282;27;62152;-73
2023/01/29 02:50:24;;;;;;;;;49.00;39.33;;;;;;;;5102730;27;61808;-73
2023/01/29 02:53:00;;;;;;;;;49.67;38.00;;;;;;;;5103591;27;61850;-73
2023/01/29 02:55:32;;;;;;;;;57.67;40.00;;;;;;;;5103444;27;61777;-73
2023/01/29 02:58:23;;;;;;;;;54.67;44.33;;;;;;;;5103382;27;61701;-73
2023/01/29 03:00:50;;;;;;;;;56.67;43.33;;;;;;;;5085506;27;63773;-73
2023/01/29 03:03:18;;;;;;;;;61.00;40.00;;;;;;;;5103569;27;62035;-73
2023/01/29 03:05:52;;;;;;;;;49.00;35.00;;;;;;;;5102858;27;61993;-72
2023/01/29 03:08:20;;;;;;;;;47.67;39.33;;;;;;;;5101334;27;61793;-73
2023/01/29 03:11:05;;;;;;;;;62.00;46.33;;;;;;;;5101047;27;63705;-73
2023/01/29 03:13:39;;;;;;;;;58.67;40.00;;;;;;;;5101388;27;62062;-72
2023/01/29 03:16:23;;;;;;;;;59.67;41.67;;;;;;;;5103064;27;61988;-73
2023/01/29 03:18:51;;;;;;;;;52.33;43.33;;;;;;;;5101568;27;61778;-73
2023/01/29 03:32:20;;;;;;;;;60.00;43.00;;;;;;;;5102503;27;61797;-73
2023/01/29 03:34:47;;;;;;;;;62.67;42.33;;;;;;;;5102525;27;61898;-73
2023/01/29 03:37:17;;;;;;;;;66.00;46.33;;;;;;;;5102881;27;61829;-73
2023/01/29 03:39:42;;;;;;;;;52.67;42.33;;;;;;;;5100649;27;62135;-73
2023/01/29 03:42:19;;;;;;;;;62.67;47.33;;;;;;;;5102254;27;61690;-72
2023/01/29 03:44:48;;;;;;;;;66.67;49.67;;;;;;;;5102634;27;62121;-73
2023/01/29 03:47:19;;;;;;;;;63.33;43.00;;;;;;;;5105069;27;61885;-73
2023/01/29 03:49:48;;;;;;;;;53.67;40.67;;;;;;;;5104710;27;61975;-73
2023/01/29 03:52:18;;;;;;;;;49.67;43.33;;;;;;;;5104442;27;63677;-73
2023/01/29 03:54:43;;;;;;;;;52.67;38.00;;;;;;;;5106540;27;61874;-73
2023/01/29 03:57:16;;;;;;;;;58.67;41.33;;;;;;;;5106312;27;61661;-73
2023/01/29 03:59:54;;;;;;;;;50.33;41.00;;;;;;;;5106062;27;61985;-72
2023/01/29 04:02:29;;;;;;;;;54.33;44.33;;;;;;;;5105420;27;61762;-72
2023/01/29 04:05:03;;;;;;;;;58.00;45.33;;;;;;;;5106270;27;61950;-72
2023/01/29 04:07:32;;;;;;;;;48.00;43.00;;;;;;;;5106000;27;61707;-73
2023/01/29 04:10:02;;;;;;;;;54.00;42.00;;;;;;;;5105862;27;62089;-73
2023/01/29 04:12:29;;;;;;;;;57.33;39.67;;;;;;;;5105519;27;62747;-73
2023/01/29 04:14:56;;;;;;;;;59.67;43.33;;;;;;;;5105724;27;61985;-73
2023/01/29 04:17:24;;;;;;;;;68.00;43.67;;;;;;;;5105747;27;61768;-73
2023/01/29 04:19:49;;;;;;;;;62.67;43.33;;;;;;;;5106029;27;61793;-73
2023/01/29 04:22:28;;;;;;;;;46.33;36.67;;;;;;;;5105325;27;62094;-73
2023/01/29 04:24:54;;;;;;;;;57.33;45.67;;;;;;;;5104437;27;62036;-73
2023/01/29 04:27:25;;;;;;;;;54.00;42.33;;;;;;;;5104455;27;61893;-73
2023/01/29 04:30:02;;;;;;;;;47.00;36.67;;;;;;;;5105827;27;61939;-73
2023/01/29 04:32:31;;;;;;;;;62.33;42.67;;;;;;;;5104845;27;62659;-73
2023/01/29 04:35:04;;;;;;;;;51.00;42.00;;;;;;;;5104447;27;61770;-72
2023/01/29 04:37:33;;;;;;;;;51.00;44.00;;;;;;;;5105385;27;61928;-73
2023/01/29 04:40:18;;;;;;;;;52.00;41.33;;;;;;;;5105584;27;61782;-72
2023/01/29 04:42:46;;;;;;;;;54.33;41.67;;;;;;;;5104959;27;62606;-73
2023/01/29 04:45:18;;;;;;;;;55.00;36.33;;;;;;;;5105292;27;61850;-73
2023/01/29 04:47:50;;;;;;;;;43.00;39.00;;;;;;;;5105217;27;61759;-73
2023/01/29 04:50:28;;;;;;;;;55.00;46.00;;;;;;;;5105577;27;62149;-73
2023/01/29 04:53:01;;;;;;;;;52.00;45.33;;;;;;;;5105025;27;62693;-73
2023/01/29 04:55:45;;;;;;;;;63.33;43.00;;;;;;;;5103473;27;61873;-73
2023/01/29 04:58:14;;;;;;;;;60.00;43.33;;;;;;;;5104783;27;61807;-73
2023/01/29 05:00:41;;;;;;;;;50.33;43.00;;;;;;;;5105082;27;61737;-73
2023/01/29 05:03:08;;;;;;;;;49.00;35.00;;;;;;;;5104712;27;61954;-73
2023/01/29 05:05:34;;;;;;;;;51.67;42.67;;;;;;;;5103676;27;61724;-72
2023/01/29 05:07:59;;;;;;;;;59.33;44.67;;;;;;;;5103084;27;61832;-72
2023/01/29 05:10:25;;;;;;;;;57.00;46.67;;;;;;;;5105249;27;61873;-73
2023/01/29 05:12:53;;;;;;;;;54.33;43.00;;;;;;;;5102917;27;64274;-72
2023/01/29 05:15:22;;;;;;;;;57.33;41.00;;;;;;;;5103113;27;61881;-72
2023/01/29 05:17:47;;;;;;;;;56.00;47.00;;;;;;;;5105115;27;61687;-73
2023/01/29 05:20:12;;;;;;;;;43.00;36.67;;;;;;;;5105119;27;61711;-73
2023/01/29 05:22:40;;;;;;;;;48.00;38.33;;;;;;;;5102763;27;63649;-73
2023/01/29 05:25:18;;;;;;;;;48.00;39.33;;;;;;;;5104773;27;61663;-72
2023/01/29 05:30:28;;;;;;;;;64.00;42.33;;;;;;;;5104617;27;61835;-73
2023/01/29 05:32:53;;;;;;;;;52.33;38.67;;;;;;;;5104046;27;61856;-72
2023/01/29 05:35:18;;;;;;;;;45.67;38.33;;;;;;;;5104784;27;61973;-73
2023/01/29 05:37:44;;;;;;;;;54.33;43.00;;;;;;;;5103948;27;61699;-73
2023/01/29 05:40:10;;;;;;;;;46.67;43.00;;;;;;;;5104730;27;61735;-72
2023/01/29 05:42:35;;;;;;;;;58.33;47.00;;;;;;;;5104126;27;61822;-73
2023/01/29 05:45:00;;;;;;;;;46.00;39.00;;;;;;;;5102422;27;61859;-72
2023/01/29 05:47:26;;;;;;;;;58.00;41.00;;;;;;;;5104217;27;61764;-73
2023/01/29 05:49:51;;;;;;;;;59.33;43.33;;;;;;;;5104776;27;61705;-72
2023/01/29 05:52:16;;;;;;;;;46.33;37.00;;;;;;;;5103806;27;61667;-72
2023/01/29 05:54:41;;;;;;;;;52.33;42.00;;;;;;;;5103164;27;61989;-73
2023/01/29 05:57:07;;;;;;;;;64.33;42.67;;;;;;;;5104374;27;62087;-72
2023/01/29 05:59:32;;;;;;;;;51.33;40.00;;;;;;;;5102190;27;62114;-72
2023/01/29 06:01:57;;;;;;;;;60.00;43.33;;;;;;;;5103786;27;62655;-73
2023/01/29 06:04:23;;;;;;;;;49.33;43.33;;;;;;;;5104077;27;61850;-72
2023/01/29 06:06:48;;;;;;;;;39.33;35.00;;;;;;;;5104252;27;61672;-73
2023/01/29 06:09:13;;;;;;;;;49.33;42.67;;;;;;;;5103148;27;61659;-72
2023/01/29 06:11:39;;;;;;;;;64.33;46.33;;;;;;;;5103334;27;62908;-73
2023/01/29 06:14:04;;;;;;;;;39.67;35.00;;;;;;;;5103527;27;61664;-73
2023/01/29 06:16:29;;;;;;;;;42.33;38.67;;;;;;;;5102751;27;61884;-72
2023/01/29 06:18:54;;;;;;;;;53.00;38.33;;;;;;;;5104208;27;61719;-72
2023/01/29 06:21:20;;;;;;;;;36.67;34.00;;;;;;;;5103389;27;62570;-73
2023/01/29 06:23:45;;;;;;;;;38.67;36.67;;;;;;;;5103897;27;61683;-73
2023/01/29 06:26:11;;;;;;;;;48.00;36.33;;;;;;;;5102518;27;61712;-73
2023/01/29 06:28:37;;;;;;;;;50.67;35.67;;;;;;;;5103402;27;62003;-72
2023/01/29 06:31:03;;;;;;;;;54.00;38.67;;;;;;;;5103158;27;61779;-72
2023/01/29 06:33:28;;;;;;;;;38.67;31.67;;;;;;;;5103929;27;61759;-72
2023/01/29 06:35:57;;;;;;;;;46.00;38.33;;;;;;;;5103916;27;61752;-72
2023/01/29 06:38:23;;;;;;;;;51.67;43.00;;;;;;;;5103188;27;61700;-72
2023/01/29 06:40:49;;;;;;;;;40.00;34.00;;;;;;;;5103283;27;61860;-72
2023/01/29 06:43:14;;;;;;;;;45.00;29.33;;;;;;;;5101466;27;62239;-74
2023/01/29 06:45:45;;;;;;;;;59.33;39.00;;;;;;;;5103592;27;61911;-73
2023/01/29 06:48:10;;;;;;;;;49.67;32.33;;;;;;;;5103934;27;61802;-73
2023/01/29 06:50:35;;;;;;;;;52.33;42.00;;;;;;;;5102896;27;62598;-73
2023/01/29 06:53:01;;;;;;;;;50.00;37.33;;;;;;;;5102001;27;61862;-73
2023/01/29 06:55:26;;;;;;;;;39.67;33.00;;;;;;;;5103669;27;61876;-72
2023/01/29 06:57:51;;;;;;;;;54.67;37.67;;;;;;;;5101960;27;61919;-72
2023/01/29 07:00:17;;;;;;;;;43.33;33.33;;;;;;;;5102480;27;62015;-73
2023/01/29 07:02:42;;;;;;;;;51.67;40.33;;;;;;;;5103237;27;61927;-72
2023/01/29 07:05:07;;;;;;;;;44.67;40.67;;;;;;;;5103517;27;61782;-73
2023/01/29 07:07:34;;;;;;;;;48.67;38.00;;;;;;;;5102079;27;62106;-73
2023/01/29 07:09:59;;;;;;;;;48.00;35.67;;;;;;;;5102418;27;61718;-72
2023/01/29 07:12:25;;;;;;;;;50.67;35.00;;;;;;;;5102259;27;61750;-73
2023/01/29 07:14:50;;;;;;;;;46.67;35.33;;;;;;;;5101545;27;61928;-72
2023/01/29 07:17:15;;;;;;;;;47.00;33.67;;;;;;;;5102196;27;61890;-73
2023/01/29 07:19:41;;;;;;;;;62.67;43.67;;;;;;;;5104751;27;63713;-73
2023/01/29 07:22:06;;;;;;;;;49.00;37.67;;;;;;;;5109809;27;61909;-73
2023/01/29 07:24:31;;;;;;;;;47.33;35.00;;;;;;;;5110102;27;61837;-73
2023/01/29 07:26:57;;;;;;;;;48.67;40.33;;;;;;;;5109619;27;61806;-72
2023/01/29 07:29:22;;;;;;;;;42.33;28.00;;;;;;;;5108886;27;61769;-73
2023/01/29 07:31:47;;;;;;;;;49.33;34.00;;;;;;;;5108504;27;61841;-73
2023/01/29 07:34:12;;;;;;;;;46.67;38.33;;;;;;;;5109867;27;61673;-73
2023/01/29 07:36:38;;;;;;;;;45.00;36.67;;;;;;;;5108561;27;62225;-72
2023/01/29 07:39:03;;;;;;;;;42.67;37.33;;;;;;;;5107975;27;62545;-73
2023/01/29 07:41:28;;;;;;;;;49.00;35.00;;;;;;;;5109297;27;61803;-73
2023/01/29 07:43:53;;;;;;;;;47.00;37.00;;;;;;;;5109614;27;61866;-72
2023/01/29 07:46:19;;;;;;;;;47.00;39.00;;;;;;;;5109525;27;61720;-73
2023/01/29 07:48:44;;;;;;;;;43.00;32.00;;;;;;;;5109035;27;62830;-72
2023/01/29 07:51:09;;;;;;;;;50.67;33.33;;;;;;;;5109532;27;61862;-73
2023/01/29 07:53:35;;;;;;;;;46.33;39.33;;;;;;;;5109620;27;61858;-72
2023/01/29 07:56:01;;;;;;;;;61.67;43.33;;;;;;;;5108023;27;61842;-72
2023/01/29 07:58:26;;;;;;;;;43.33;28.33;;;;;;;;5108542;27;62893;-72
2023/01/29 08:00:51;;;;;;;;;49.67;42.00;;;;;;;;5109445;27;61822;-72
2023/01/29 08:03:18;;;;;;;;;58.67;39.00;;;;;;;;5108235;27;61862;-73
2023/01/29 08:05:44;;;;;;;;;55.67;37.00;;;;;;;;5108149;27;61757;-72
2023/01/29 08:08:09;;;;;;;;;21.33;13.33;;;;;;;;5108092;27;61881;-73
2023/01/29 08:10:35;;;;;;;;;65.00;43.00;;;;;;;;5109103;27;61834;-73
2023/01/29 08:13:01;;;;;;;;;54.33;40.67;;;;;;;;5107870;27;61786;-72
2023/01/29 08:15:27;;;;;;;;;56.00;43.00;;;;;;;;5107574;27;61899;-72
2023/01/29 08:17:52;;;;;;;;;62.33;42.33;;;;;;;;5108591;27;63118;-72
2023/01/29 08:20:18;;;;;;;;;51.00;45.33;;;;;;;;5109410;27;61841;-73
2023/01/29 08:22:43;;;;;;;;;61.33;46.33;;;;;;;;5108973;27;61723;-73
2023/01/29 08:25:09;;;;;;;;;64.33;49.00;;;;;;;;5108834;27;61739;-72
2023/01/29 08:27:34;;;;;;;;;46.67;40.67;;;;;;;;5108394;27;62760;-72
2023/01/29 08:30:00;;;;;;;;;57.67;47.67;;;;;;;;5108612;27;61955;-73
2023/01/29 08:32:25;;;;;;;;;63.33;45.67;;;;;;;;5104870;27;61950;-73
2023/01/29 08:34:50;;;;;;;;;63.33;46.00;;;;;;;;5105989;27;62124;-73
2023/01/29 08:37:16;;;;;;;;;54.67;44.67;;;;;;;;5103731;27;64930;-72
2023/01/29 08:39:41;;;;;;;;;52.33;46.00;;;;;;;;5104145;27;61781;-73
2023/01/29 08:42:06;;;;;;;;;62.00;44.33;;;;;;;;5103871;27;61785;-73
2023/01/29 08:44:31;;;;;;;;;68.67;48.67;;;;;;;;5105501;27;61886;-73
2023/01/29 08:46:57;;;;;;;;;60.00;45.67;;;;;;;;5103510;27;63722;-73
2023/01/29 08:49:22;;;;;;;;;66.00;43.67;;;;;;;;5105487;27;61907;-73
2023/01/29 08:51:47;;;;;;;;;65.67;48.67;;;;;;;;5105616;27;62195;-72
2023/01/29 08:54:13;;;;;;;;;53.33;46.00;;;;;;;;5103615;27;61967;-73
2023/01/29 08:56:38;;;;;;;;;57.33;45.33;;;;;;;;5104491;27;62775;-73
2023/01/29 08:59:03;;;;;;;;;55.33;44.33;;;;;;;;5105239;27;61884;-73
2023/01/29 09:01:29;;;;;;;;;64.67;43.33;;;;;;;;5103657;27;61948;-73
2023/01/29 09:03:54;;;;;;;;;62.00;45.33;;;;;;;;5103978;27;61830;-72
2023/01/29 09:06:19;;;;;;;;;55.33;44.33;;;;;;;;5103225;27;63086;-72
2023/01/29 09:08:45;;;;;;;;;52.67;44.67;;;;;;;;5102847;27;62059;-73
2023/01/29 09:11:10;;;;;;;;;51.33;39.67;;;;;;;;5103880;27;61972;-73
2023/01/29 09:13:36;;;;;;;;;54.67;38.67;;;;;;;;5104421;27;61992;-73
2023/01/29 09:16:02;;;;;;;;;52.33;31.00;;;;;;;;5104395;27;61703;-72
2023/01/29 09:18:28;;;;;;;;;42.00;38.33;;;;;;;;5105264;27;61763;-73
2023/01/29 09:20:53;;;;;;;;;48.33;35.00;;;;;;;;5104828;27;61961;-72
2023/01/29 09:23:18;;;;;;;;;59.25;39.50;;;;;;;;5104988;27;61862;-73
2023/01/29 09:25:44;;;;;;;;;44.67;38.67;;;;;;;;5104040;27;61722;-73
2023/01/29 09:28:09;;;;;;;;;58.33;39.67;;;;;;;;5104820;27;61892;-73
2023/01/29 09:30:36;;;;;;;;;49.25;39.25;;;;;;;;5103444;27;61904;-73
2023/01/29 09:33:05;;;;;;;;;45.00;34.00;;;;;;;;5103893;27;61917;-73
2023/01/29 09:35:31;;;;;;;;;41.33;37.00;;;;;;;;5104296;27;62044;-73
2023/01/29 09:37:56;;;;;;;;;47.75;33.75;;;;;;;;5101865;27;61905;-72
2023/01/29 09:40:29;;;;;;;;;51.50;32.75;;;;;;;;5104996;27;61630;-72
2023/01/29 09:43:00;;;;;;;;;42.25;32.75;;;;;;;;5103576;27;61812;-73
2023/01/29 09:45:26;;;;;;;;;37.00;29.50;;;;;;;;5103891;27;61837;-73
2023/01/29 09:47:54;;;;;;;;;46.75;34.25;;;;;;;;5104632;27;61904;-73
2023/01/29 09:50:27;;;;;;;;;38.75;33.25;;;;;;;;5104412;27;61724;-73
2023/01/29 09:52:58;;;;;;;;;51.25;33.00;;;;;;;;5104922;27;61783;-73
2023/01/29 09:55:36;;;;;;;;;41.75;31.50;;;;;;;;5103868;27;61736;-73
2023/01/29 09:58:10;;;;;;;;;34.00;24.25;;;;;;;;5102953;27;61801;-73
2023/01/29 10:00:54;;;;;;;;;48.50;41.50;;;;;;;;5104243;27;61961;-72
2023/01/29 10:03:38;;;;;;;;;44.00;29.50;;;;;;;;5104703;27;61910;-73
2023/01/29 10:06:13;;;;;;;;;39.25;31.50;;;;;;;;5103380;27;61793;-73
2023/01/29 10:08:58;;;;;;;;;43.25;30.50;;;;;;;;5103903;27;61928;-73
2023/01/29 10:11:42;;;;;;;;;45.50;32.00;;;;;;;;5103311;27;61850;-73
2023/01/29 10:14:18;;;;;;;;;39.00;31.00;;;;;;;;5104143;27;62380;-73
2023/01/29 10:17:01;;;;;;;;;48.00;36.50;;;;;;;;5102044;27;64668;-73
2023/01/29 10:19:53;;;;;;;;;44.50;35.25;;;;;;;;5103594;27;61890;-73
2023/01/29 10:22:21;;;;;;;;;40.75;32.00;;;;;;;;5102849;27;62086;-74
2023/01/29 10:24:46;;;;;;;;;48.25;35.25;;;;;;;;5104238;27;61890;-73
2023/01/29 10:27:16;;;;;;;;;46.00;39.50;;;;;;;;5103425;27;61841;-73
2023/01/29 10:29:42;;;;;;;;;45.00;40.33;;;;;;;;5102611;27;61938;-73
2023/01/29 10:32:12;;;;;;;;;48.50;40.50;;;;;;;;5102778;27;61733;-73
2023/01/29 10:34:49;;;;;;;;;50.50;34.00;;;;;;;;5103747;27;61757;-73
2023/01/29 10:37:17;;;;;;;;;39.75;29.25;;;;;;;;5103337;27;62104;-73
2023/01/29 10:39:42;;;;;;;;;46.75;35.75;;;;;;;;5103118;27;61660;-73
2023/01/29 10:42:10;;;;;;;;;44.75;38.75;;;;;;;;5103857;27;62339;-73
2023/01/29 10:44:41;;;;;;;;;48.25;38.00;;;;;;;;5103939;27;61704;-74
2023/01/29 10:47:10;;;;;;;;;48.25;38.00;;;;;;;;5102920;27;62622;-73
2023/01/29 10:49:54;;;;;;;;;44.25;33.50;;;;;;;;5103470;27;62193;-73
2023/01/29 10:52:19;;;;;;;;;34.75;25.75;;;;;;;;5103946;27;61995;-73
2023/01/29 10:54:52;;;;;;;;;37.25;33.00;;;;;;;;5103282;27;62028;-73
2023/01/29 10:57:21;;;;;;;;;47.00;35.00;;;;;;;;5103171;27;61821;-73
2023/01/29 10:59:49;;;;;;;;;42.25;35.00;;;;;;;;5103391;27;61897;-73
2023/01/29 11:02:16;;;;;;;;;31.50;28.75;;;;;;;;5102120;27;61874;-73
2023/01/29 11:04:42;;;;;;;;;58.00;36.75;;;;;;;;5103482;27;61852;-73
2023/01/29 11:07:07;;;;;;;;;46.75;31.50;;;;;;;;5102821;27;62674;-72
2023/01/29 11:09:42;;;;;;;;;46.00;38.50;;;;;;;;5102973;27;61782;-73
2023/01/29 11:12:13;;;;;;;;;52.00;39.00;;;;;;;;5103132;27;61990;-73
2023/01/29 11:14:43;;;;;;;;;40.75;29.50;;;;;;;;5103563;27;61786;-73
2023/01/29 11:17:20;;;;;;;;;44.75;40.25;;;;;;;;5102710;27;61853;-72
2023/01/29 11:19:47;;;;;;;;;50.00;35.00;;;;;;;;5103359;27;61791;-73
2023/01/29 11:22:12;;;;;;;;;46.50;38.75;;;;;;;;5101993;27;61854;-74
2023/01/29 11:24:37;;;;;;;;;51.00;41.25;;;;;;;;5103199;27;61798;-73
2023/01/29 11:27:12;;;;;;;;;63.00;41.75;;;;;;;;5102509;27;62806;-73
2023/01/29 11:29:38;;;;;;;;;46.50;36.50;;;;;;;;5103076;27;61932;-73
2023/01/29 11:32:05;;;;;;;;;33.50;30.00;;;;;;;;5102858;27;61914;-73
2023/01/29 11:34:30;;;;;;;;;50.00;39.50;;;;;;;;5102292;27;62074;-73
2023/01/29 11:37:14;;;;;;;;;45.50;36.00;;;;;;;;5100712;27;63404;-73
2023/01/29 11:39:42;;;;;;;;;42.50;35.00;;;;;;;;5101966;27;61745;-73
2023/01/29 11:42:17;;;;;;;;;40.50;31.00;;;;;;;;5103059;27;61873;-73
2023/01/29 11:44:43;;;;;;;;;43.25;32.00;;;;;;;;5103028;27;61918;-73
2023/01/29 11:47:19;;;;;;;;;39.00;31.25;;;;;;;;5101839;27;62449;-72
2023/01/29 11:49:45;;;;;;;;;46.00;39.50;;;;;;;;5102845;27;61684;-73
2023/01/29 11:52:11;;;;;;;;;36.00;31.00;;;;;;;;5102972;27;61922;-73
2023/01/29 11:54:45;;;;;;;;;32.25;30.50;;;;;;;;5103324;27;61680;-73
2023/01/29 11:57:21;;;;;;;;;30.75;27.75;;;;;;;;5102244;27;61760;-73
2023/01/29 11:59:49;;;;;;;;;38.75;29.75;;;;;;;;5102516;27;61852;-73
2023/01/29 12:02:17;;;;;;;;;42.00;28.50;;;;;;;;5102330;27;62129;-72
2023/01/29 12:04:43;;;;;;;;;37.25;23.00;;;;;;;;5101844;27;62007;-73
2023/01/29 12:07:15;;;;;;;;;24.00;19.75;;;;;;;;5103193;27;64479;-73
2023/01/29 12:09:40;;;;;;;;;36.25;31.00;;;;;;;;5105971;27;61705;-73
2023/01/29 12:12:16;;;;;;;;;27.50;23.25;;;;;;;;5105833;27;61988;-73
2023/01/29 12:14:42;;;;;;;;;34.75;28.50;;;;;;;;5106338;27;61969;-72
2023/01/29 12:17:28;;;;;;;;;31.75;24.00;;;;;;;;5103718;27;63219;-73
2023/01/29 12:20:03;;;;;;;;;38.00;31.00;;;;;;;;5104264;27;61909;-73
2023/01/29 12:22:34;;;;;;;;;21.00;20.75;;;;;;;;5106208;27;61699;-73
2023/01/29 12:25:06;;;;;;;;;28.75;25.00;;;;;;;;5106452;27;62261;-74
2023/01/29 12:27:46;;;;;;;;;19.50;14.50;;;;;;;;5105226;27;61781;-73
2023/01/29 12:30:32;;;;;;;;;14.00;12.25;;;;;;;;5103645;27;62091;-73
2023/01/29 12:33:11;;;;;;;;;25.00;20.50;;;;;;;;5098087;27;61855;-72
2023/01/29 12:35:45;;;;;;;;;22.50;19.75;;;;;;;;5106295;27;61795;-73
2023/01/29 12:38:20;;;;;;;;;17.50;15.75;;;;;;;;5104539;27;61771;-73
2023/01/29 12:40:47;;;;;;;;;24.75;20.25;;;;;;;;5105592;27;61779;-73
2023/01/29 12:43:16;;;;;;;;;12.75;11.00;;;;;;;;5105757;27;61813;-73
2023/01/29 12:45:43;;;;;;;;;16.25;13.50;;;;;;;;5105535;27;61841;-73
2023/01/29 12:48:13;;;;;;;;;21.00;16.50;;;;;;;;5105059;27;61833;-72
2023/01/29 12:50:38;;;;;;;;;20.25;15.25;;;;;;;;5105503;27;61824;-73
2023/01/29 12:53:06;;;;;;;;;14.50;12.00;;;;;;;;5105566;27;61770;-72
2023/01/29 12:55:36;;;;;;;;;13.00;9.00;;;;;;;;5106035;27;61835;-73
2023/01/29 12:58:03;;;;;;;;;10.00;8.00;;;;;;;;5105149;27;61661;-73
2023/01/29 13:00:28;;;;;;;;;20.00;16.00;;;;;;;;5104867;27;61749;-73
2023/01/29 13:03:12;;;;;;;;;12.25;7.75;;;;;;;;5105409;27;61977;-73
2023/01/29 13:05:40;;;;;;;;;6.75;6.75;;;;;;;;5105632;27;61786;-73
2023/01/29 13:08:17;;;;;;;;;9.00;7.00;;;;;;;;5104482;27;62821;-73
2023/01/29 13:10:45;;;;;;;;;10.00;8.25;;;;;;;;5104079;27;61750;-73
2023/01/29 13:13:17;;;;;;;;;10.25;7.00;;;;;;;;5104858;27;61745;-74
2023/01/29 13:15:43;;;;;;;;;11.50;9.00;;;;;;;;5105444;27;61820;-73
2023/01/29 13:18:11;;;;;;;;;11.00;10.00;;;;;;;;5104253;27;62550;-73
2023/01/29 13:20:37;;;;;;;;;15.25;11.50;;;;;;;;5104065;27;61781;-73
2023/01/29 13:23:20;;;;;;;;;11.25;7.25;;;;;;;;5105014;27;61857;-73
2023/01/29 13:25:48;;;;;;;;;10.00;7.50;;;;;;;;5104225;27;62003;-73
2023/01/29 13:28:18;;;;;;;;;14.50;10.25;;;;;;;;5103990;27;61928;-73
2023/01/29 13:30:44;;;;;;;;;6.25;6.25;;;;;;;;5104847;27;61810;-73
2023/01/29 13:33:17;;;;;;;;;9.50;6.00;;;;;;;;5105312;27;61871;-73
2023/01/29 13:35:44;;;;;;;;;9.50;6.50;;;;;;;;5105133;27;61931;-73
2023/01/29 13:38:22;;;;;;;;;7.25;6.25;;;;;;;;5103529;27;62598;-73
2023/01/29 13:40:49;;;;;;;;;6.00;6.00;;;;;;;;5104962;27;62012;-73
2023/01/29 13:43:19;;;;;;;;;10.75;9.00;;;;;;;;5104513;27;61866;-73
2023/01/29 13:45:44;;;;;;;;;12.50;10.75;;;;;;;;5105057;27;61759;-73
2023/01/29 13:48:25;;;;;;;;;11.00;9.75;;;;;;;;5104073;27;61873;-73
2023/01/29 13:50:51;;;;;;;;;10.75;10.75;;;;;;;;5104612;27;61721;-73
2023/01/29 13:53:26;;;;;;;;;12.75;6.50;;;;;;;;5104744;27;61896;-73
2023/01/29 13:55:51;;;;;;;;;12.50;11.00;;;;;;;;5105091;27;61807;-73
2023/01/29 13:58:36;;;;;;;;;11.00;9.25;;;;;;;;5103524;27;61814;-73
2023/01/29 14:01:01;;;;;;;;;8.50;7.00;;;;;;;;5104145;27;61743;-73
2023/01/29 14:03:27;;;;;;;;;20.75;14.00;;;;;;;;5103016;27;62015;-73
2023/01/29 14:05:52;;;;;;;;;14.25;11.25;;;;;;;;5104939;27;61845;-73
2023/01/29 14:08:36;;;;;;;;;12.25;12.25;;;;;;;;5103448;27;61949;-73
2023/01/29 14:11:14;;;;;;;;;14.00;11.25;;;;;;;;5102699;27;61835;-73
2023/01/29 14:13:40;;;;;;;;;9.25;8.00;;;;;;;;5104009;27;61824;-73
2023/01/29 14:16:11;;;;;;;;;12.00;8.75;;;;;;;;5104535;27;61786;-73
2023/01/29 14:18:47;;;;;;;;;16.25;10.25;;;;;;;;5103555;27;61731;-73
2023/01/29 14:21:13;;;;;;;;;8.50;8.50;;;;;;;;5104336;27;61898;-73
2023/01/29 14:23:40;;;;;;;;;18.50;15.50;;;;;;;;5104299;27;62122;-73
2023/01/29 14:26:17;;;;;;;;;20.00;13.25;;;;;;;;5104060;27;62116;-73
2023/01/29 14:28:42;;;;;;;;;19.50;12.00;;;;;;;;5102264;27;61721;-73
2023/01/29 14:31:09;;;;;;;;;16.50;14.00;;;;;;;;5103885;27;61907;-73
2023/01/29 14:33:36;;;;;;;;;31.50;27.25;;;;;;;;5103885;27;61757;-73
2023/01/29 14:36:06;;;;;;;;;27.75;21.50;;;;;;;;5104384;27;61845;-73
2023/01/29 14:38:32;;;;;;;;;16.75;13.00;;;;;;;;5100832;27;64101;-73
2023/01/29 14:41:07;;;;;;;;;16.75;13.50;;;;;;;;5103746;27;61958;-73
2023/01/29 14:43:32;;;;;;;;;15.00;15.00;;;;;;;;5103661;27;61972;-73
2023/01/29 14:46:18;;;;;;;;;16.00;12.75;;;;;;;;5103843;27;61934;-73
2023/01/29 14:48:49;;;;;;;;;12.00;12.00;;;;;;;;5101731;27;64500;-73
2023/01/29 14:51:16;;;;;;;;;9.50;8.50;;;;;;;;5102535;27;61730;-73
2023/01/29 14:53:44;;;;;;;;;7.25;7.25;;;;;;;;5102210;27;61984;-73
2023/01/29 14:56:13;;;;;;;;;18.00;14.25;;;;;;;;5102121;27;61863;-73
2023/01/29 14:58:43;;;;;;;;;18.75;15.00;;;;;;;;5102852;27;61722;-73
2023/01/29 15:01:32;;;;;;;;;17.00;13.25;;;;;;;;5102147;27;61944;-73